createdAt,value
2022-12-25T02:24:18.217Z,99.90
2022-12-25T03:45:05.690Z,99.90
2022-12-25T10:18:30.625Z,99.90
2022-12-25T10:42:08.415Z,99.90
2022-12-25T11:35:43.360Z,99.90
2022-12-25T12:00:09.253Z,99.90
2022-12-25T12:01:31.739Z,99.90
2022-12-25T12:06:15.585Z,99.90
2022-12-25T12:06:57.800Z,98.20
2022-12-25T12:07:32.212Z,98.30
2022-12-25T12:08:06.036Z,99.10
2022-12-25T12:08:38.581Z,99.10
2022-12-25T12:09:41.543Z,99.10
2022-12-25T12:10:24.195Z,98.40
2022-12-25T12:11:26.637Z,98.90
2022-12-25T12:12:09.885Z,98.40
2022-12-25T12:13:17.548Z,98.90
2022-12-25T12:14:31.133Z,98.60
2022-12-25T12:15:08.640Z,98.90
2022-12-25T12:15:47.626Z,98.80
2022-12-25T12:16:19.709Z,98.60
2022-12-25T12:16:51.592Z,98.80
2022-12-25T12:17:23.609Z,99.20
2022-12-25T12:18:07.573Z,98.90
2022-12-25T12:18:42.687Z,99.00
2022-12-25T12:19:30.480Z,98.70
2022-12-25T12:20:30.162Z,98.60
2022-12-25T12:21:04.890Z,98.90
2022-12-25T12:21:36.912Z,98.80
2022-12-25T12:22:25.500Z,99.00
2022-12-25T12:22:59.313Z,98.90
2022-12-25T12:23:54.312Z,98.90
2022-12-25T12:24:39.229Z,98.70
2022-12-25T12:25:18.413Z,98.60
2022-12-25T12:25:50.833Z,98.90
2022-12-25T12:26:28.941Z,98.90
2022-12-25T12:27:23.582Z,99.10
2022-12-25T12:28:04.902Z,98.90
2022-12-25T12:28:46.955Z,99.10
2022-12-25T12:29:32.449Z,98.90
2022-12-25T12:30:05.346Z,99.00
2022-12-25T12:30:37.367Z,98.90
2022-12-25T12:31:09.561Z,99.30
2022-12-25T12:31:48.817Z,99.00
2022-12-25T12:32:34.191Z,99.20
2022-12-25T12:33:08.113Z,98.60
2022-12-25T12:33:51.931Z,99.20
2022-12-25T12:34:32.749Z,99.10
2022-12-25T12:35:19.102Z,98.60
2022-12-25T12:35:52.132Z,99.20
2022-12-25T12:36:35.655Z,98.70
2022-12-25T12:37:25.140Z,99.10
2022-12-25T12:38:05.259Z,98.60
2022-12-25T12:38:38.916Z,98.60
2022-12-25T12:39:24.760Z,98.90
2022-12-25T12:39:57.419Z,99.20
2022-12-25T12:40:51.767Z,98.60
2022-12-25T12:41:36.836Z,98.60
2022-12-25T12:42:20.993Z,98.80
2022-12-25T12:42:54.226Z,99.50
2022-12-25T12:43:48.396Z,99.10
2022-12-25T12:44:25.062Z,98.60
2022-12-25T12:45:07.785Z,99.00
2022-12-25T12:45:39.734Z,98.90
2022-12-25T12:46:30.980Z,98.80
2022-12-25T12:47:03.444Z,99.00
2022-12-25T12:47:44.685Z,99.10
2022-12-25T12:48:24.838Z,98.70
2022-12-25T12:49:20.075Z,99.10
2022-12-25T12:49:58.763Z,98.70
2022-12-25T12:50:40.804Z,98.90
2022-12-25T12:51:26.570Z,99.00
2022-12-25T12:52:06.962Z,98.90
2022-12-25T12:52:41.976Z,98.70
2022-12-25T12:53:16.586Z,98.90
2022-12-25T12:53:48.428Z,98.80
2022-12-25T12:54:27.930Z,99.00
2022-12-25T12:55:06.742Z,99.00
2022-12-25T12:55:38.545Z,98.70
2022-12-25T12:56:10.336Z,99.20
2022-12-25T12:56:42.138Z,99.20
2022-12-25T12:57:26.916Z,98.80
2022-12-25T12:58:04.597Z,99.00
2022-12-25T12:58:40.397Z,98.70
2022-12-25T12:59:12.242Z,99.00
2022-12-25T12:59:46.121Z,99.00
2022-12-25T13:00:19.379Z,99.10
2022-12-25T13:01:13.861Z,99.00
2022-12-25T13:01:59.672Z,99.10
2022-12-25T13:03:09.869Z,99.40
2022-12-25T13:04:06.288Z,98.80
2022-12-25T13:04:47.113Z,99.00
2022-12-25T13:05:35.587Z,98.90
2022-12-25T13:06:24.329Z,98.70
2022-12-25T13:07:25.215Z,99.20
2022-12-25T13:08:09.020Z,98.70
2022-12-25T13:08:46.135Z,98.70
2022-12-25T13:09:40.444Z,98.70
2022-12-25T13:10:32.300Z,98.70
2022-12-25T13:11:23.691Z,98.70
2022-12-25T13:11:55.595Z,99.00
2022-12-25T13:12:27.926Z,98.80
2022-12-25T13:13:04.888Z,99.20
2022-12-25T13:13:41.553Z,99.00
2022-12-25T13:14:20.618Z,98.90
2022-12-25T13:14:52.986Z,99.20
2022-12-25T13:15:32.656Z,98.90
2022-12-25T13:16:06.901Z,99.00
2022-12-25T13:16:41.593Z,98.90
2022-12-25T13:17:19.351Z,99.00
2022-12-25T13:17:51.529Z,98.90
2022-12-25T13:18:23.776Z,99.10
2022-12-25T13:18:57.029Z,98.90
2022-12-25T13:19:29.532Z,99.10
2022-12-25T13:20:02.230Z,99.20
2022-12-25T13:20:55.187Z,98.70
2022-12-25T13:21:29.057Z,98.60
2022-12-25T13:22:04.310Z,98.90
2022-12-25T13:22:36.746Z,99.10
2022-12-25T13:23:28.133Z,98.70
2022-12-25T13:24:02.788Z,98.90
2022-12-25T13:24:36.923Z,99.10
2022-12-25T13:25:23.643Z,98.80
2022-12-25T13:25:57.746Z,98.60
2022-12-25T13:26:30.249Z,98.90
2022-12-25T13:27:20.886Z,98.60
2022-12-25T13:27:59.567Z,98.80
2022-12-25T13:28:34.850Z,98.70
2022-12-25T13:29:11.533Z,99.00
2022-12-25T13:29:44.207Z,98.90
2022-12-25T13:30:20.296Z,98.60
2022-12-25T13:30:52.293Z,98.70
2022-12-25T13:31:26.352Z,98.70
2022-12-25T13:32:00.156Z,98.80
2022-12-25T13:32:33.873Z,98.90
2022-12-25T13:33:05.753Z,98.70
2022-12-25T13:33:38.054Z,98.60
2022-12-25T13:34:34.127Z,98.90
2022-12-25T13:35:14.342Z,99.20
2022-12-25T13:35:46.776Z,99.10
2022-12-25T13:36:18.992Z,99.20
2022-12-25T13:36:50.988Z,98.90
2022-12-25T13:37:26.542Z,98.80
2022-12-25T13:37:58.531Z,99.00
2022-12-25T13:38:31.421Z,98.80
2022-12-25T13:39:07.139Z,98.60
2022-12-25T13:39:48.887Z,98.80
2022-12-25T13:40:27.067Z,98.80
2022-12-25T13:41:18.093Z,99.00
2022-12-25T13:42:09.993Z,98.70
2022-12-25T13:42:47.302Z,98.80
2022-12-25T13:43:19.341Z,98.60
2022-12-25T13:43:51.163Z,98.80
2022-12-25T13:44:26.472Z,99.10
2022-12-25T13:44:59.673Z,98.90
2022-12-25T13:45:33.935Z,99.00
2022-12-25T13:46:06.005Z,98.70
2022-12-25T13:46:37.907Z,98.90
2022-12-25T13:47:32.606Z,98.90
2022-12-25T13:48:15.988Z,98.40
2022-12-25T13:48:59.143Z,98.90
2022-12-25T13:49:31.225Z,99.10
2022-12-25T13:50:26.796Z,98.80
2022-12-25T13:51:01.318Z,99.10
2022-12-25T13:51:33.109Z,99.20
2022-12-25T13:52:12.448Z,99.10
2022-12-25T13:52:44.280Z,98.90
2022-12-25T13:53:18.013Z,98.90
2022-12-25T13:53:49.977Z,99.20
2022-12-25T13:54:21.954Z,98.70
2022-12-25T13:55:04.487Z,99.00
2022-12-25T13:55:36.862Z,98.40
2022-12-25T13:56:15.561Z,98.90
2022-12-25T13:57:12.581Z,98.90
2022-12-25T13:57:45.925Z,98.90
2022-12-25T13:58:27.629Z,98.80
2022-12-25T13:58:59.678Z,98.40
2022-12-25T13:59:31.650Z,99.00
2022-12-25T14:00:06.176Z,98.90
2022-12-25T14:00:40.200Z,98.70
2022-12-25T14:01:16.360Z,99.00
2022-12-25T14:01:50.550Z,99.00
2022-12-25T14:02:29.785Z,98.90
2022-12-25T14:03:03.190Z,99.30
2022-12-25T14:03:47.396Z,99.10
2022-12-25T14:04:22.138Z,98.80
2022-12-25T14:04:53.918Z,99.10
2022-12-25T14:05:42.171Z,98.80
2022-12-25T14:06:29.291Z,99.20
2022-12-25T14:07:10.149Z,98.30
2022-12-25T14:07:41.928Z,98.70
2022-12-25T14:08:23.335Z,98.60
2022-12-25T14:08:58.222Z,98.80
2022-12-25T14:09:31.297Z,99.10
2022-12-25T14:10:04.196Z,98.30
2022-12-25T14:10:39.327Z,98.70
2022-12-25T14:11:16.363Z,98.90
2022-12-25T14:11:52.778Z,98.90
2022-12-25T14:12:28.027Z,98.90
2022-12-25T14:13:04.560Z,98.90
2022-12-25T14:13:40.827Z,98.90
2022-12-25T14:14:18.893Z,99.00
2022-12-25T14:14:53.060Z,99.00
2022-12-25T14:15:31.955Z,99.00
2022-12-25T14:16:04.048Z,98.90
2022-12-25T14:16:36.597Z,98.80
2022-12-25T14:17:11.885Z,98.90
2022-12-25T14:17:44.329Z,99.00
2022-12-25T14:18:18.208Z,98.70
2022-12-25T14:18:55.790Z,99.00
2022-12-25T14:19:30.904Z,98.90
2022-12-25T14:20:08.250Z,99.00
2022-12-25T14:20:42.629Z,98.90
2022-12-25T14:21:32.502Z,99.10
2022-12-25T14:22:11.770Z,98.30
2022-12-25T14:22:53.884Z,98.20
2022-12-25T14:23:26.716Z,98.20
2022-12-25T14:23:59.172Z,99.00
2022-12-25T14:24:33.969Z,98.90
2022-12-25T14:25:15.015Z,98.90
2022-12-25T14:25:48.700Z,98.90
2022-12-25T14:26:30.065Z,98.90
2022-12-25T14:27:15.336Z,99.00
2022-12-25T14:27:52.001Z,99.10
2022-12-25T14:28:34.050Z,99.20
2022-12-25T14:29:05.769Z,98.90
2022-12-25T14:29:42.599Z,98.90
2022-12-25T14:30:14.740Z,98.90
2022-12-25T14:30:47.257Z,98.90
2022-12-25T14:31:20.062Z,99.20
2022-12-25T14:31:53.153Z,99.30
2022-12-25T14:32:28.274Z,98.90
2022-12-25T14:33:02.605Z,99.50
2022-12-25T14:33:39.254Z,98.90
2022-12-25T14:34:21.977Z,99.30
2022-12-25T14:34:58.837Z,98.20
2022-12-25T14:35:30.971Z,99.00
2022-12-25T14:36:03.307Z,99.00
2022-12-25T14:36:35.559Z,98.80
2022-12-25T14:37:17.165Z,99.00
2022-12-25T14:37:57.448Z,99.20
2022-12-25T14:38:35.176Z,98.80
2022-12-25T14:39:22.508Z,99.10
2022-12-25T14:39:57.956Z,99.10
2022-12-25T14:40:32.082Z,99.10
2022-12-25T14:41:07.582Z,99.00
2022-12-25T14:41:42.012Z,98.90
2022-12-25T14:42:22.229Z,99.10
2022-12-25T14:42:57.103Z,99.10
2022-12-25T14:43:30.686Z,99.10
2022-12-25T14:44:06.649Z,99.10
2022-12-25T14:44:40.484Z,99.00
2022-12-25T14:45:29.560Z,99.30
2022-12-25T14:46:06.497Z,99.00
2022-12-25T14:46:38.445Z,98.70
2022-12-25T14:47:20.484Z,99.30
2022-12-25T14:47:58.943Z,98.10
2022-12-25T14:48:32.533Z,99.20
2022-12-25T14:49:23.557Z,98.90
2022-12-25T14:49:55.869Z,99.10
2022-12-25T14:50:36.363Z,99.20
2022-12-25T14:51:16.974Z,98.00
2022-12-25T14:51:48.819Z,99.10
2022-12-25T14:52:42.200Z,99.20
2022-12-25T14:53:20.902Z,98.00
2022-12-25T14:53:56.950Z,99.20
2022-12-25T14:54:28.770Z,99.20
2022-12-25T14:55:04.761Z,98.90
2022-12-25T14:55:37.545Z,99.20
2022-12-25T14:56:10.354Z,99.00
2022-12-25T14:56:48.367Z,98.80
2022-12-25T14:57:30.158Z,99.00
2022-12-25T14:58:05.473Z,97.90
2022-12-25T14:58:43.135Z,99.30
2022-12-25T14:59:21.018Z,99.40
2022-12-25T14:59:59.521Z,99.10
2022-12-25T15:00:37.733Z,99.30
2022-12-25T15:01:22.350Z,99.40
2022-12-25T15:02:01.107Z,99.20
2022-12-25T15:02:42.778Z,99.10
2022-12-25T15:03:29.465Z,99.40
2022-12-25T15:04:15.250Z,99.10
2022-12-25T15:04:47.131Z,99.50
2022-12-25T15:05:28.258Z,99.10
2022-12-25T15:06:19.249Z,99.20
2022-12-25T15:06:59.804Z,99.20
2022-12-25T15:07:32.281Z,99.30
2022-12-25T15:08:06.991Z,99.30
2022-12-25T15:08:40.377Z,99.20
2022-12-25T15:09:16.761Z,99.30
2022-12-25T15:09:48.670Z,99.30
2022-12-25T15:10:58.250Z,99.50
2022-12-25T15:11:12.287Z,99.40
2022-12-25T15:11:51.132Z,99.20
2022-12-25T15:12:23.479Z,98.10
2022-12-25T15:12:55.311Z,99.40
2022-12-25T15:13:27.692Z,99.40
2022-12-25T15:13:59.637Z,99.50
2022-12-25T15:14:31.459Z,99.70
2022-12-25T15:15:03.336Z,99.60
2022-12-25T15:15:35.434Z,99.70
2022-12-25T15:16:17.632Z,99.60
2022-12-25T15:16:51.998Z,99.90
2022-12-25T15:17:27.286Z,99.50
2022-12-25T15:18:04.472Z,99.70
2022-12-25T15:18:43.283Z,99.60
2022-12-25T15:19:27.241Z,99.70
2022-12-25T15:20:04.023Z,99.80
2022-12-25T15:20:35.868Z,99.70
2022-12-25T15:21:26.769Z,99.90
2022-12-25T15:21:59.639Z,99.90
2022-12-25T15:22:54.072Z,99.90
2022-12-25T15:23:25.504Z,99.90
2022-12-25T15:23:59.331Z,99.80
2022-12-25T15:24:31.384Z,99.90
2022-12-25T15:25:03.451Z,99.90
2022-12-25T15:25:35.280Z,99.80
2022-12-25T15:26:09.336Z,99.90
2022-12-25T15:26:43.040Z,99.90
2022-12-25T15:27:21.198Z,99.90
2022-12-25T15:27:53.100Z,99.90
2022-12-25T15:28:24.854Z,99.90
2022-12-25T15:28:57.003Z,99.90
2022-12-25T15:30:07.863Z,99.90
2022-12-25T15:30:21.863Z,99.90
2022-12-25T15:30:53.643Z,99.90
2022-12-25T15:31:31.958Z,99.90
2022-12-25T15:32:04.125Z,99.90
2022-12-25T15:32:35.926Z,99.90
2022-12-25T15:33:13.128Z,99.90
2022-12-25T15:33:44.940Z,99.90
2022-12-25T15:34:20.671Z,99.90
2022-12-25T15:34:53.867Z,99.90
2022-12-25T15:35:25.754Z,99.90
2022-12-25T15:35:57.563Z,99.90
2022-12-25T15:36:29.491Z,99.90
2022-12-25T15:37:01.276Z,99.90
2022-12-25T15:37:33.085Z,99.90
2022-12-25T15:38:05.397Z,99.90
2022-12-25T15:38:38.811Z,99.90
2022-12-25T15:39:10.647Z,99.90
2022-12-25T15:39:42.502Z,99.90
2022-12-25T15:40:16.249Z,99.90
2022-12-25T15:40:48.099Z,99.90
2022-12-25T15:41:48.739Z,99.90
2022-12-25T15:42:23.624Z,99.20
2022-12-25T15:42:56.379Z,99.90
2022-12-25T15:43:43.909Z,99.90
2022-12-25T15:44:16.129Z,99.90
2022-12-25T15:44:47.997Z,99.90
2022-12-25T15:45:30.222Z,99.90
2022-12-25T15:46:02.088Z,99.90
2022-12-25T15:46:34.757Z,99.90
2022-12-25T15:47:08.521Z,99.90
2022-12-25T15:47:40.287Z,99.90
2022-12-25T15:48:12.044Z,99.90
2022-12-25T15:48:43.820Z,99.90
2022-12-25T15:49:16.575Z,99.90
2022-12-25T15:49:48.943Z,99.90
2022-12-25T15:50:21.224Z,99.90
2022-12-25T15:50:52.967Z,99.90
2022-12-25T15:51:24.739Z,99.90
2022-12-25T15:51:56.515Z,99.90
2022-12-25T15:52:28.273Z,99.90
2022-12-25T15:53:00.019Z,99.90
2022-12-25T15:53:31.853Z,99.90
2022-12-25T15:54:03.808Z,99.90
2022-12-25T15:54:35.812Z,99.90
2022-12-25T15:55:08.105Z,99.90
2022-12-25T15:55:40.339Z,99.90
2022-12-25T15:56:13.057Z,99.90
2022-12-25T15:56:51.429Z,99.90
2022-12-25T15:57:23.626Z,99.90
2022-12-25T15:57:55.690Z,99.90
2022-12-25T15:58:27.477Z,99.90
2022-12-25T15:58:59.497Z,99.90
2022-12-25T15:59:31.722Z,99.90
2022-12-25T16:00:05.496Z,99.90
2022-12-25T16:00:43.576Z,99.90
2022-12-25T16:01:17.286Z,99.90
2022-12-25T16:01:54.287Z,99.90
2022-12-25T16:02:28.082Z,99.90
2022-12-25T16:03:00.089Z,99.90
2022-12-25T16:03:32.096Z,99.90
2022-12-25T16:04:04.443Z,99.90
2022-12-25T16:04:36.407Z,99.90
2022-12-25T16:05:10.529Z,99.90
2022-12-25T16:05:42.591Z,99.90
2022-12-25T16:06:17.275Z,99.90
2022-12-25T16:06:50.259Z,99.90
2022-12-25T16:07:24.872Z,99.90
2022-12-25T16:07:56.719Z,99.90
2022-12-25T16:08:28.579Z,99.90
2022-12-25T16:09:00.352Z,99.90
2022-12-25T16:09:32.115Z,99.90
2022-12-25T16:10:06.858Z,99.90
2022-12-25T16:10:40.327Z,99.90
2022-12-25T16:11:12.329Z,99.90
2022-12-25T16:11:44.207Z,99.90
2022-12-25T16:12:16.167Z,99.90
2022-12-25T16:12:47.984Z,99.90
2022-12-25T16:13:19.789Z,99.90
2022-12-25T16:13:51.691Z,99.90
2022-12-25T16:14:23.484Z,99.90
2022-12-25T16:14:55.231Z,99.90
2022-12-25T16:15:27.044Z,99.90
2022-12-25T16:15:58.931Z,99.90
2022-12-25T16:16:31.147Z,99.90
2022-12-25T16:17:03.386Z,99.90
2022-12-25T16:17:35.204Z,99.90
2022-12-25T16:18:07.117Z,99.90
2022-12-25T16:18:46.739Z,99.90
2022-12-25T16:19:19.214Z,99.90
2022-12-25T16:19:51.019Z,99.90
2022-12-25T16:20:22.809Z,99.90
2022-12-25T16:20:55.829Z,99.90
2022-12-25T16:21:40.078Z,99.90
2022-12-25T16:22:13.988Z,99.90
2022-12-25T16:22:45.804Z,99.90
2022-12-25T16:23:17.578Z,99.90
2022-12-25T16:23:49.368Z,99.90
2022-12-25T16:24:21.166Z,99.90
2022-12-25T16:24:53.676Z,99.90
2022-12-25T16:25:25.612Z,99.90
2022-12-25T16:25:57.342Z,99.90
2022-12-25T16:26:30.588Z,99.90
2022-12-25T16:27:02.385Z,99.90
2022-12-25T16:27:34.150Z,99.90
2022-12-25T16:28:09.475Z,99.90
2022-12-25T16:28:41.374Z,99.90
2022-12-25T16:29:13.511Z,99.90
2022-12-25T16:29:45.398Z,99.90
2022-12-25T16:30:18.169Z,99.90
2022-12-25T16:30:50.028Z,99.90
2022-12-25T16:31:21.942Z,99.90
2022-12-25T16:31:53.724Z,99.90
2022-12-25T16:32:25.527Z,99.90
2022-12-25T16:32:57.325Z,99.90
2022-12-25T16:33:29.241Z,99.90
2022-12-25T16:34:01.562Z,99.90
2022-12-25T16:34:33.629Z,99.90
2022-12-25T16:35:05.966Z,99.90
2022-12-25T16:35:38.110Z,99.90
2022-12-25T16:36:09.920Z,99.90
2022-12-25T16:36:42.387Z,99.90
2022-12-25T16:37:14.163Z,99.90
2022-12-25T16:37:45.980Z,99.90
2022-12-25T16:38:18.013Z,99.90
2022-12-25T16:38:49.868Z,99.90
2022-12-25T16:39:21.755Z,99.90
2022-12-25T16:39:53.573Z,99.90
2022-12-25T16:40:25.528Z,99.90
2022-12-25T16:41:01.270Z,99.90
2022-12-25T16:41:33.146Z,99.90
2022-12-25T16:42:04.990Z,99.90
2022-12-25T16:42:38.232Z,99.90
2022-12-25T16:43:09.969Z,99.90
2022-12-25T16:43:42.292Z,99.90
2022-12-25T16:44:14.698Z,99.90
2022-12-25T16:44:46.507Z,99.90
2022-12-25T16:45:18.406Z,99.90
2022-12-25T16:45:50.308Z,99.90
2022-12-25T16:46:22.854Z,99.90
2022-12-25T16:46:54.848Z,99.90
2022-12-25T16:47:26.812Z,99.90
2022-12-25T16:47:58.630Z,99.90
2022-12-25T16:48:30.454Z,99.90
2022-12-25T16:49:02.767Z,99.90
2022-12-25T16:49:35.142Z,99.90
2022-12-25T16:50:08.410Z,99.90
2022-12-25T16:50:41.422Z,99.90
2022-12-25T16:51:19.237Z,99.90
2022-12-25T16:51:51.069Z,99.90
2022-12-25T16:52:22.984Z,99.90
2022-12-25T16:52:54.765Z,99.90
2022-12-25T16:53:26.563Z,99.90
2022-12-25T16:53:58.445Z,99.90
2022-12-25T16:54:30.200Z,99.90
2022-12-25T16:55:03.304Z,99.90
2022-12-25T16:55:37.659Z,99.90
2022-12-25T16:56:14.690Z,99.90
2022-12-25T16:56:46.586Z,99.90
2022-12-25T16:57:18.418Z,99.90
2022-12-25T16:57:51.113Z,99.90
2022-12-25T16:58:22.870Z,99.90
2022-12-25T16:58:57.285Z,99.90
2022-12-25T16:59:30.109Z,99.90
2022-12-25T17:00:04.397Z,99.90
2022-12-25T17:00:36.523Z,99.90
2022-12-25T17:01:11.005Z,99.90
2022-12-25T17:01:43.435Z,99.90
2022-12-25T17:02:17.885Z,99.90
2022-12-25T17:02:50.054Z,99.90
2022-12-25T17:03:22.199Z,99.90
2022-12-25T17:03:54.364Z,99.90
2022-12-25T17:04:27.662Z,99.90
2022-12-25T17:05:00.394Z,99.90
2022-12-25T17:05:33.762Z,99.90
2022-12-25T17:06:14.831Z,99.90
2022-12-25T17:06:47.968Z,99.90
2022-12-25T17:07:19.785Z,99.90
2022-12-25T17:07:52.227Z,99.90
2022-12-25T17:08:24.131Z,99.90
2022-12-25T17:09:00.379Z,99.90
2022-12-25T17:09:32.159Z,99.90
2022-12-25T17:10:05.893Z,99.90
2022-12-25T17:10:38.929Z,99.90
2022-12-25T17:11:11.218Z,99.90
2022-12-25T17:11:43.052Z,99.90
2022-12-25T17:12:15.355Z,99.90
2022-12-25T17:12:47.162Z,99.90
2022-12-25T17:13:19.094Z,99.90
2022-12-25T17:13:50.895Z,99.90
2022-12-25T17:14:22.788Z,99.90
2022-12-25T17:14:54.621Z,99.90
2022-12-25T17:15:27.597Z,99.90
2022-12-25T17:15:59.483Z,99.90
2022-12-25T17:16:34.775Z,99.90
2022-12-25T17:17:06.676Z,99.90
2022-12-25T17:17:38.515Z,99.90
2022-12-25T17:18:10.262Z,99.90
2022-12-25T17:18:42.059Z,99.90
2022-12-25T17:19:21.816Z,99.90
2022-12-25T17:19:53.620Z,99.90
2022-12-25T17:20:25.392Z,99.90
2022-12-25T17:20:57.171Z,99.90
2022-12-25T17:21:29.943Z,99.90
2022-12-25T17:22:01.841Z,99.90
2022-12-25T17:22:33.647Z,99.90
2022-12-25T17:23:06.052Z,99.90
2022-12-25T17:23:38.913Z,99.90
2022-12-25T17:24:11.172Z,99.90
2022-12-25T17:24:42.989Z,99.90
2022-12-25T17:25:14.870Z,99.90
2022-12-25T17:25:46.743Z,99.90
2022-12-25T17:26:18.553Z,99.90
2022-12-25T17:26:50.497Z,99.90
2022-12-25T17:27:22.323Z,99.90
2022-12-25T17:27:54.177Z,99.90
2022-12-25T17:28:26.031Z,99.90
2022-12-25T17:28:58.579Z,99.90
2022-12-25T17:29:31.874Z,99.90
2022-12-25T17:30:03.865Z,99.90
2022-12-25T17:30:35.730Z,99.90
2022-12-25T17:31:10.266Z,99.90
2022-12-25T17:31:42.135Z,99.90
2022-12-25T17:32:14.282Z,99.90
2022-12-25T17:32:46.166Z,99.90
2022-12-25T17:33:17.957Z,99.90
2022-12-25T17:33:49.703Z,99.90
2022-12-25T17:34:21.626Z,99.90
2022-12-25T17:34:53.511Z,99.90
2022-12-25T17:35:25.316Z,99.90
2022-12-25T17:36:05.908Z,99.90
2022-12-25T17:36:37.759Z,99.90
2022-12-25T17:37:09.593Z,99.90
2022-12-25T17:37:41.475Z,99.90
2022-12-25T17:38:13.329Z,99.90
2022-12-25T17:38:46.306Z,99.90
2022-12-25T17:39:18.762Z,99.90
2022-12-25T17:39:50.553Z,99.90
2022-12-25T17:40:23.871Z,99.90
2022-12-25T17:40:57.032Z,99.90
2022-12-25T17:41:29.416Z,99.90
2022-12-25T17:42:01.288Z,99.90
2022-12-25T17:42:33.179Z,99.90
2022-12-25T17:43:04.969Z,99.90
2022-12-25T17:43:45.420Z,99.90
2022-12-25T17:44:18.619Z,99.90
2022-12-25T17:44:50.413Z,99.90
2022-12-25T17:45:22.270Z,99.90
2022-12-25T17:45:54.123Z,99.90
2022-12-25T17:46:28.151Z,99.90
2022-12-25T17:47:00.639Z,99.90
2022-12-25T17:47:32.660Z,99.90
2022-12-25T17:48:04.452Z,99.90
2022-12-25T17:48:36.410Z,99.90
2022-12-25T17:49:14.936Z,98.10
2022-12-25T17:49:46.748Z,99.80
2022-12-25T17:50:18.581Z,99.90
2022-12-25T17:50:50.350Z,99.60
2022-12-25T17:51:25.440Z,99.50
2022-12-25T17:51:57.270Z,99.90
2022-12-25T17:52:29.139Z,98.70
2022-12-25T17:53:02.501Z,99.90
2022-12-25T17:53:39.155Z,97.80
2022-12-25T17:54:11.758Z,97.60
2022-12-25T17:54:44.008Z,97.90
2022-12-25T17:55:15.871Z,97.40
2022-12-25T17:55:47.651Z,97.60
2022-12-25T17:56:20.754Z,97.60
2022-12-25T17:56:52.550Z,97.70
2022-12-25T17:57:24.342Z,97.80
2022-12-25T17:57:56.138Z,97.70
2022-12-25T17:58:28.049Z,97.70
2022-12-25T17:59:03.439Z,97.80
2022-12-25T17:59:35.233Z,97.80
2022-12-25T18:00:07.682Z,97.60
2022-12-25T18:00:39.466Z,97.60
2022-12-25T18:01:16.527Z,97.60
2022-12-25T18:01:49.220Z,97.60
2022-12-25T18:02:21.325Z,97.40
2022-12-25T18:02:53.339Z,97.60
2022-12-25T18:03:25.486Z,97.60
2022-12-25T18:03:59.836Z,97.70
2022-12-25T18:04:31.978Z,97.70
2022-12-25T18:05:04.284Z,97.60
2022-12-25T18:05:36.751Z,97.60
2022-12-25T18:06:13.321Z,97.30
2022-12-25T18:06:45.204Z,97.40
2022-12-25T18:07:17.506Z,97.60
2022-12-25T18:07:49.280Z,98.30
2022-12-25T18:08:21.020Z,97.30
2022-12-25T18:08:54.641Z,97.50
2022-12-25T18:09:26.546Z,97.60
2022-12-25T18:09:58.362Z,97.50
2022-12-25T18:10:30.182Z,97.70
2022-12-25T18:11:07.571Z,97.30
2022-12-25T18:11:41.697Z,97.50
2022-12-25T18:12:13.501Z,97.60
2022-12-25T18:12:45.703Z,97.30
2022-12-25T18:13:17.772Z,97.30
2022-12-25T18:13:52.101Z,97.50
2022-12-25T18:14:23.955Z,97.50
2022-12-25T18:14:56.175Z,97.60
2022-12-25T18:15:27.977Z,97.30
2022-12-25T18:16:07.368Z,97.70
2022-12-25T18:16:43.108Z,97.50
2022-12-25T18:17:15.100Z,99.90
2022-12-25T18:17:46.830Z,97.60
2022-12-25T18:18:18.717Z,97.70
2022-12-25T18:18:52.976Z,99.90
2022-12-25T18:19:24.883Z,99.90
2022-12-25T18:19:56.752Z,97.70
2022-12-25T18:20:34.484Z,97.30
2022-12-25T18:21:12.795Z,97.50
2022-12-25T18:21:44.849Z,97.30
2022-12-25T18:22:16.740Z,97.50
2022-12-25T18:22:48.521Z,97.60
2022-12-25T18:23:20.729Z,97.40
2022-12-25T18:23:52.501Z,97.70
2022-12-25T18:24:24.370Z,97.50
2022-12-25T18:24:56.108Z,97.40
2022-12-25T18:25:28.493Z,97.40
2022-12-25T18:26:08.202Z,97.40
2022-12-25T18:26:39.983Z,97.40
2022-12-25T18:27:11.815Z,97.60
2022-12-25T18:27:43.576Z,97.10
2022-12-25T18:28:15.516Z,97.40
2022-12-25T18:28:49.223Z,97.60
2022-12-25T18:29:21.032Z,97.50
2022-12-25T18:29:53.243Z,97.30
2022-12-25T18:30:25.202Z,97.30
2022-12-25T18:30:57.078Z,97.30
2022-12-25T18:31:30.274Z,97.50
2022-12-25T18:32:02.335Z,97.10
2022-12-25T18:32:34.280Z,97.30
2022-12-25T18:33:06.339Z,97.30
2022-12-25T18:33:38.227Z,97.10
2022-12-25T18:34:10.095Z,97.50
2022-12-25T18:34:41.851Z,97.50
2022-12-25T18:35:13.677Z,97.90
2022-12-25T18:35:46.708Z,97.80
2022-12-25T18:36:24.745Z,97.10
2022-12-25T18:37:02.838Z,97.60
2022-12-25T18:37:39.897Z,97.40
2022-12-25T18:38:13.439Z,97.40
2022-12-25T18:38:45.310Z,97.30
2022-12-25T18:39:17.315Z,97.70
2022-12-25T18:39:49.099Z,96.60
2022-12-25T18:40:53.185Z,97.10
2022-12-25T18:41:25.250Z,97.30
2022-12-25T18:42:15.608Z,97.50
2022-12-25T18:42:52.278Z,97.50
2022-12-25T18:44:17.905Z,97.10
2022-12-25T18:44:49.681Z,97.10
2022-12-25T18:45:21.467Z,97.40
2022-12-25T18:45:58.086Z,97.40
2022-12-25T18:46:30.057Z,97.20
2022-12-25T18:47:01.862Z,97.40
2022-12-25T18:47:34.513Z,97.60
2022-12-25T18:48:06.897Z,97.10
2022-12-25T18:48:39.026Z,97.40
2022-12-25T18:49:11.002Z,97.40
2022-12-25T18:49:42.779Z,97.40
2022-12-25T18:50:14.671Z,97.10
2022-12-25T18:50:54.329Z,97.10
2022-12-25T18:51:29.936Z,97.30
2022-12-25T18:52:49.079Z,97.60
2022-12-25T18:53:32.835Z,97.20
2022-12-25T18:54:04.703Z,97.20
2022-12-25T18:54:36.522Z,97.30
2022-12-25T18:55:09.184Z,97.40
2022-12-25T18:55:41.201Z,97.40
2022-12-25T18:56:17.587Z,97.20
2022-12-25T18:57:26.053Z,97.20
2022-12-25T18:57:58.475Z,97.40
2022-12-25T18:58:30.372Z,97.60
2022-12-25T18:59:02.639Z,97.20
2022-12-25T18:59:34.574Z,97.40
2022-12-25T19:00:07.199Z,97.40
2022-12-25T19:00:39.085Z,97.40
2022-12-25T19:01:21.845Z,97.20
2022-12-25T19:01:53.968Z,97.20
2022-12-25T19:02:26.325Z,97.70
2022-12-25T19:02:59.363Z,97.40
2022-12-25T19:03:31.437Z,97.20
2022-12-25T19:04:05.567Z,97.20
2022-12-25T19:04:38.116Z,97.20
2022-12-25T19:05:10.258Z,97.40
2022-12-25T19:05:42.166Z,97.40
2022-12-25T19:06:26.091Z,97.40
2022-12-25T19:06:57.937Z,97.40
2022-12-25T19:07:29.940Z,97.40
2022-12-25T19:08:01.753Z,97.20
2022-12-25T19:08:33.539Z,97.20
2022-12-25T19:09:11.304Z,97.80
2022-12-25T19:09:43.165Z,97.20
2022-12-25T19:10:14.940Z,97.40
2022-12-25T19:10:46.793Z,97.20
2022-12-25T19:11:19.165Z,97.40
2022-12-25T19:11:51.477Z,97.40
2022-12-25T19:12:24.039Z,97.40
2022-12-25T19:12:55.813Z,97.50
2022-12-25T19:13:27.665Z,97.40
2022-12-25T19:13:59.468Z,97.60
2022-12-25T19:14:31.493Z,97.40
2022-12-25T19:15:19.654Z,96.20
2022-12-25T19:15:51.548Z,97.40
2022-12-25T19:16:23.568Z,97.40
2022-12-25T19:16:56.709Z,97.20
2022-12-25T19:17:31.942Z,97.40
2022-12-25T19:18:04.278Z,97.20
2022-12-25T19:18:36.616Z,97.20
2022-12-25T19:19:08.474Z,97.40
2022-12-25T19:19:40.304Z,97.10
2022-12-25T19:20:12.448Z,97.50
2022-12-25T19:20:44.219Z,97.20
2022-12-25T19:21:16.128Z,96.90
2022-12-25T19:21:54.837Z,97.40
2022-12-25T19:22:26.685Z,97.40
2022-12-25T19:22:58.437Z,97.60
2022-12-25T19:23:30.259Z,97.40
2022-12-25T19:24:02.093Z,97.40
2022-12-25T19:24:34.670Z,97.50
2022-12-25T19:25:07.160Z,97.40
2022-12-25T19:25:39.835Z,97.40
2022-12-25T19:26:12.107Z,97.20
2022-12-25T19:26:43.956Z,97.20
2022-12-25T19:27:16.308Z,97.70
2022-12-25T19:27:48.113Z,97.10
2022-12-25T19:28:19.918Z,97.50
2022-12-25T19:28:52.860Z,97.40
2022-12-25T19:29:24.915Z,97.40
2022-12-25T19:29:58.900Z,97.40
2022-12-25T19:30:30.672Z,97.60
2022-12-25T19:31:03.611Z,97.20
2022-12-25T19:31:37.170Z,97.20
2022-12-25T19:32:09.071Z,97.40
2022-12-25T19:32:40.864Z,97.60
2022-12-25T19:33:17.657Z,97.70
2022-12-25T19:33:49.779Z,97.10
2022-12-25T19:34:21.642Z,97.40
2022-12-25T19:34:53.463Z,97.30
2022-12-25T19:35:25.222Z,97.10
2022-12-25T19:36:06.674Z,97.30
2022-12-25T19:36:39.055Z,97.10
2022-12-25T19:37:10.897Z,97.10
2022-12-25T19:37:42.678Z,97.10
2022-12-25T19:38:14.572Z,97.50
2022-12-25T19:38:46.668Z,97.60
2022-12-25T19:39:18.738Z,97.10
2022-12-25T19:39:52.203Z,97.10